Decoded Metar for LELL (SABADELL in SPAIN) (IATA:QSA) | Meteo·Mobile Aviation Weather
aviador You're here:

LELL Decoded Metar

SABADELL in SPAIN
Report Time2018-12-19 05:30:00
UTC Time2018-12-19 05:58:44
Flight Rules vfr VFR
Wind280° at 01 kt
W.Decomp.*RWY 31: 0.9 kt HW 0.5 kt LCW
W.Rank280° ranks 3
Current wind is below 280° avg. (5.8)
Visibility9999 m
Phenomena:N/A
Clouds:N/A
Expected CloudBase > 400 ft AGL from Temp-Dew spread
CeilingNone
Temp07°C (ISA -7)
Dew Point06°C (93% RH)
AAT5.7°C
QNH1018 hPa
Density Alt-404 ft
Elevation485 ft
Report Wrong Elevation
Raw Report
LELL 190530Z AUTO 28001KT CAVOK 07/06 Q1018=

Extra information for LELL:More info

Metar Taf Metar & Taf Last 4 Metars F.Rules Stats Wind Profile Meteogram Temp Stats Airport Information Weather charts Add Link Nearby VenuesMetar ALERT Operation Metar Decoded Social comments

Aeroclub BS Web Page